Latest Weather Observations for Edinburgh

IDS60801

Issued at 4:31 am CDT Tuesday 13 November 2018 (issued every 10 minutes, with the page automatically refreshed every 10 minutes)

About weather observations | Map of weather stations | Latest weather observations for SA | Other Formats
Station Details ID: 023083 Name: EDINBURGH RAAF Lat: -34.71 Lon: 138.62 Height: 16.54 m
Data from the previous 72 hours. | See also: Recent months at Edinburgh
Date/Time
CDT
Temp
°C
App
Temp
°C
Dew
Point
°C
Rel
Hum
%
Delta-T
°C
Wind Press
QNH
hPa
Press
MSL
hPa
Rain since
9am
mm
Dir  Spd
km/h
Gust
km/h
Spd
kts
Gust
kts
13/04:30am 21.9 19.2 11.6 52 5.8 SW 17 41 9 22 1008.1 1008.1 0.0
13/04:00am 23.0 19.6 7.5 37 8.1 NE 15 17 8 9 1006.8 1006.8 0.0
13/03:30am 23.6 20.1 7.3 35 8.5 NE 15 19 8 10 1007.2 1007.2 0.0
13/03:00am 23.0 20.0 7.9 38 8.0 WNW 13 17 7 9 1007.6 1007.6 0.0
13/02:30am 22.7 20.0 8.8 41 7.4 NNE 13 15 7 8 1007.3 1007.3 0.0
13/02:00am 23.7 20.8 8.2 37 8.2 NE 13 15 7 8 1007.2 1007.2 0.0
13/01:30am 23.9 21.1 8.7 38 8.2 ENE 13 15 7 8 1007.7 1007.7 0.0
13/01:00am 24.6 21.8 8.5 36 8.6 ENE 13 17 7 9 1008.3 1008.3 0.0
13/12:30am 23.2 21.5 11.3 47 6.7 NE 11 17 6 9 1009.0 1008.9 0.0
13/12:00am 22.9 20.2 11.6 49 6.4 NE 17 20 9 11 1009.7 1009.6 0.0
 
Date/Time
CDT
Temp
°C
App
Temp
°C
Dew
Point
°C
Rel
Hum
%
Delta-T
°C
Wind Press
QNH
hPa
Press
MSL
hPa
Rain since
9am
mm
Dir  Spd
km/h
Gust
km/h
Spd
kts
Gust
kts
12/11:30pm 22.9 22.1 11.6 49 6.3 N 7 11 4 6 1010.2 1010.1 0.0
12/11:00pm 23.5 21.1 11.5 47 6.7 N 15 24 8 13 1010.4 1010.3 0.0
12/10:30pm 23.7 22.1 11.4 46 6.9 NE 11 20 6 11 1010.6 1010.5 0.0
12/10:00pm 24.2 21.7 11.2 44 7.3 ENE 15 20 8 11 1010.7 1010.6 0.0
12/09:30pm 23.9 22.4 11.9 47 6.8 SE 11 17 6 9 1010.8 1010.7 0.0
12/09:00pm 23.8 22.7 13.1 51 6.2 ESE 11 15 6 8 1011.0 1010.9 0.0
12/08:30pm 23.5 22.9 13.4 53 5.9 S 9 15 5 8 1011.6 1011.5 0.0
12/08:00pm 23.4 22.4 13.3 53 5.9 S 11 17 6 9 1011.7 1011.6 0.0
12/07:30pm 23.5 21.0 13.4 53 5.9 SW 19 24 10 13 1011.9 1011.8 0.0
12/07:00pm 23.6 20.5 13.5 53 5.9 SSW 22 28 12 15 1011.6 1011.5 0.0
12/06:30pm 23.6 19.5 13.8 54 5.7 SSW 28 35 15 19 1011.3 1011.2 0.0
12/06:00pm 24.1 19.4 13.3 51 6.3 SSW 30 37 16 20 1010.9 1010.8 0.0
12/05:30pm 24.4 18.9 13.6 51 6.3 SSW 35 48 19 26 1010.7 1010.6 0.0
12/05:00pm 25.1 17.8 12.7 46 7.2 SSW 43 56 23 30 1010.2 1010.1 0.0
12/04:40pm 26.9 19.9 8.4 31 10.0 W 35 63 19 34 1009.6 1009.5 0.0
12/04:39pm 30.6 24.3 8.9 26 12.1 W 32 63 17 34 1009.4 1009.3 0.0
12/04:30pm 33.1 24.7 -2.6 10 16.7 W 32 43 17 23 1009.2 1009.1 0.0
12/04:00pm 34.7 27.0 -2.8 9 17.7 WNW 28 39 15 21 1009.3 1009.2 0.0
12/03:30pm 33.9 26.7 -4.9 8 17.6 N 24 35 13 19 1009.6 1009.5 0.0
12/03:00pm 35.2 27.4 -4.0 8 18.2 NNW 28 44 15 24 1010.0 1009.9 0.0
12/02:30pm 34.8 26.9 -4.3 8 18.0 NNW 28 39 15 21 1010.2 1010.1 0.0
12/02:11pm 35.0 26.8 -4.1 8 18.1 NW 30 48 16 26 1010.4 1010.3 0.0
12/02:00pm 34.7 26.8 -4.4 8 17.9 NNW 28 39 15 21 1010.7 1010.6 0.0
12/01:30pm 34.1 26.2 -4.8 8 17.7 NNW 28 43 15 23 1011.1 1011.0 0.0
12/01:00pm 33.8 25.5 -5.0 8 17.5 NNW 30 43 16 23 1011.4 1011.3 0.0
12/12:30pm 33.9 25.6 -4.9 8 17.6 N 30 39 16 21 1011.8 1011.7 0.0
12/12:00pm 32.8 24.6 -4.2 9 16.8 NNW 30 39 16 21 1012.4 1012.3 0.0
12/11:30am 32.6 24.0 -4.3 9 16.7 NNW 32 41 17 22 1012.6 1012.5 0.0
12/11:00am 33.1 25.3 -4.0 9 16.9 N 28 39 15 21 1012.7 1012.6 0.0
12/10:30am 31.8 23.7 -3.5 10 16.1 N 30 39 16 21 1012.8 1012.7 0.0
12/10:00am 30.8 23.9 -3.0 11 15.4 NNE 24 32 13 17 1013.1 1013.0 0.0
12/09:30am 29.8 23.3 -2.6 12 14.8 NNE 22 30 12 16 1013.3 1013.2 0.0
12/09:00am 28.0 21.8 -3.0 13 13.8 NNE 20 26 11 14 1013.1 1013.0 0.0
12/08:30am 27.3 20.9 -1.6 15 13.1 NE 22 30 12 16 1013.1 1013.0 0.0
12/08:00am 25.7 19.7 -1.2 17 12.2 NE 20 24 11 13 1012.7 1012.6 0.0
12/07:30am 24.5 18.5 -1.3 18 11.5 NE 20 28 11 15 1012.6 1012.5 0.0
12/07:00am 24.4 18.5 -0.7 19 11.3 NE 20 26 11 14 1012.6 1012.5 0.0
12/06:30am 23.7 19.1 -1.3 19 11.1 NE 13 19 7 10 1012.5 1012.4 0.0
12/06:00am 23.4 18.4 -1.5 19 11.0 NNE 15 20 8 11 1012.2 1012.1 0.0
12/05:30am 23.0 18.0 -1.1 20 10.7 NE 15 19 8 10 1011.9 1011.8 0.0
12/05:00am 23.5 18.6 -0.7 20 10.9 NE 15 19 8 10 1012.0 1011.9 0.0
12/04:30am 23.8 18.5 -0.5 20 11.0 NE 17 22 9 12 1012.1 1012.0 0.0
12/04:00am 24.6 18.6 -1.3 18 11.6 NE 20 26 11 14 1012.1 1012.0 0.0
12/03:30am 24.0 18.7 -0.3 20 11.0 NE 17 20 9 11 1012.1 1012.0 0.0
12/03:00am 24.0 18.8 0.4 21 10.9 ENE 17 20 9 11 1012.0 1011.9 0.0
12/02:30am 23.5 18.6 1.8 24 10.2 ENE 17 24 9 13 1012.4 1012.3 0.0
12/02:00am 23.3 19.2 2.2 25 10.0 ENE 13 19 7 10 1012.7 1012.6 0.0
12/01:30am 23.4 19.7 2.3 25 10.0 ENE 11 15 6 8 1013.2 1013.1 0.0
12/01:00am 24.2 19.8 2.9 25 10.3 ENE 15 20 8 11 1013.7 1013.6 0.0
12/12:30am 23.8 19.9 3.2 26 10.0 ENE 13 19 7 10 1014.0 1013.9 0.0
12/12:00am 23.7 20.5 3.1 26 9.9 ENE 9 13 5 7 1014.3 1014.2 0.0
 
Date/Time
CDT
Temp
°C
App
Temp
°C
Dew
Point
°C
Rel
Hum
%
Delta-T
°C
Wind Press
QNH
hPa
Press
MSL
hPa
Rain since
9am
mm
Dir  Spd
km/h
Gust
km/h
Spd
kts
Gust
kts
11/11:30pm 24.7 20.7 2.8 24 10.6 E 13 17 7 9 1014.7 1014.6 0.0
11/11:00pm 24.9 20.9 3.0 24 10.6 ESE 13 20 7 11 1014.9 1014.8 0.0
11/10:30pm 25.1 21.6 3.7 25 10.5 SE 11 17 6 9 1015.1 1015.0 0.0
11/10:00pm 25.8 22.0 3.7 24 10.9 ESE 13 19 7 10 1015.1 1015.0 0.0
11/09:30pm 26.3 22.5 4.1 24 11.1 SE 13 19 7 10 1014.9 1014.8 0.0
11/09:00pm 26.4 23.3 3.6 23 11.3 SE 9 11 5 6 1014.8 1014.7 0.0
11/08:30pm 26.7 22.7 0.4 18 12.3 S 11 15 6 8 1014.6 1014.5 0.0
11/08:00pm 27.3 24.0 0.1 17 12.8 S 7 9 4 5 1014.0 1013.9 0.0
11/07:30pm 28.6 24.7 -1.5 14 13.9 SSW 9 11 5 6 1013.7 1013.6 0.0
11/07:00pm 30.3 26.3 -2.2 12 15.0 SW 9 13 5 7 1013.7 1013.6 0.0
11/06:30pm 30.8 26.1 -1.9 12 15.2 SW 13 19 7 10 1013.6 1013.5 0.0
11/06:00pm 31.1 25.7 -1.6 12 15.3 WSW 17 20 9 11 1013.6 1013.5 0.0
11/05:30pm 31.3 25.9 -1.5 12 15.4 WSW 17 24 9 13 1013.7 1013.6 0.0
11/05:00pm 30.7 25.2 -1.9 12 15.1 SSW 17 22 9 12 1013.8 1013.7 0.0
11/04:30pm 31.0 25.4 -2.9 11 15.5 SW 17 26 9 14 1014.2 1014.1 0.0
11/04:00pm 31.1 24.0 -4.1 10 15.8 SW 24 30 13 16 1014.5 1014.4 0.0
11/03:30pm 31.0 24.1 -2.9 11 15.5 SW 24 32 13 17 1014.8 1014.7 0.0
11/03:00pm 30.8 24.8 -1.9 12 15.2 WSW 20 28 11 15 1015.3 1015.2 0.0
11/02:30pm 30.4 24.7 2.6 17 13.9 W 22 30 12 16 1015.5 1015.4 0.0
11/02:00pm 30.1 25.2 -0.3 14 14.5 ENE 15 24 8 13 1016.0 1015.9 0.0
11/01:30pm 30.2 24.6 -0.2 14 14.5 NNE 19 32 10 17 1016.5 1016.4 0.0
11/01:00pm 28.8 23.7 0.5 16 13.5 NE 17 26 9 14 1017.0 1016.9 0.0
11/12:30pm 28.2 23.7 2.4 19 12.7 NE 15 28 8 15 1017.5 1017.4 0.0
11/12:00pm 27.8 22.7 2.8 20 12.3 NE 19 30 10 16 1018.0 1017.9 0.0
11/11:30am 27.4 22.2 2.5 20 12.2 NE 19 32 10 17 1018.3 1018.2 0.0
11/11:00am 26.4 20.7 3.0 22 11.5 NE 22 32 12 17 1018.6 1018.5 0.0
11/10:30am 25.3 19.3 3.3 24 10.8 NE 24 30 13 16 1018.7 1018.6 0.0
11/10:00am 24.6 18.9 4.9 28 9.9 NE 24 35 13 19 1018.8 1018.7 0.0
11/09:30am 23.6 18.2 4.5 29 9.4 ENE 22 32 12 17 1019.1 1019.0 0.0
11/09:00am 22.0 17.4 5.4 34 8.3 ENE 19 26 10 14 1019.3 1019.2 0.0
11/08:30am 19.9 16.4 5.5 39 7.1 NE 13 20 7 11 1019.5 1019.4 0.0
11/08:00am 18.5 15.6 6.7 46 5.9 E 11 17 6 9 1019.5 1019.4 0.0
11/07:30am 16.9 14.2 7.5 54 4.7 ENE 11 17 6 9 1019.7 1019.6 0.0
11/07:00am 14.9 12.3 7.7 62 3.6 NE 11 15 6 8 1019.7 1019.6 0.0
11/06:30am 12.9 9.8 7.1 68 2.8 NE 13 17 7 9 1019.3 1019.2 0.0
11/06:00am 13.5 10.4 7.1 65 3.1 NE 13 17 7 9 1018.9 1018.8 0.0
11/05:30am 14.1 10.6 7.2 63 3.4 ENE 15 19 8 10 1018.6 1018.5 0.0
11/05:00am 11.6 10.8 6.3 70 2.5 CALM 0 0 0 0 1018.3 1018.2 0.0
11/04:30am 12.6 10.8 7.1 69 2.6 NE 6 9 3 5 1018.5 1018.4 0.0
11/04:00am 10.7 8.5 6.3 74 2.1 NNE 7 7 4 4 1018.6 1018.5 0.0
11/03:30am 11.0 9.0 6.4 73 2.2 N 6 7 3 4 1018.7 1018.6 0.0
11/03:00am 10.8 9.9 6.2 73 2.1 CALM 0 0 0 0 1018.6 1018.5 0.0
11/02:30am 10.9 8.9 6.3 73 2.1 WSW 6 7 3 4 1018.8 1018.7 0.0
11/02:00am 11.5 9.3 6.4 71 2.4 W 7 9 4 5 1019.0 1018.9 0.0
11/01:30am 12.6 10.1 6.6 67 2.9 W 9 13 5 7 1019.2 1019.1 0.0
11/01:00am 12.8 11.9 5.9 63 3.2 CALM 0 4 0 2 1019.0 1018.9 0.0
11/12:30am 16.1 13.6 6.5 53 4.7 E 9 13 5 7 1018.9 1018.8 0.0
11/12:00am 16.2 13.8 7.2 55 4.5 SE 9 15 5 8 1019.2 1019.1 0.0
 
Date/Time
CDT
Temp
°C
App
Temp
°C
Dew
Point
°C
Rel
Hum
%
Delta-T
°C
Wind Press
QNH
hPa
Press
MSL
hPa
Rain since
9am
mm
Dir  Spd
km/h
Gust
km/h
Spd
kts
Gust
kts
10/11:30pm 16.4 14.3 6.8 53 4.7 SE 7 13 4 7 1019.1 1019.0 0.0
10/11:00pm 16.9 14.2 7.5 54 4.7 ESE 11 15 6 8 1019.2 1019.1 0.0
10/10:30pm 18.0 15.2 7.1 49 5.4 ESE 11 17 6 9 1019.6 1019.5 0.0
10/10:00pm 19.0 16.2 7.1 46 6.0 ESE 11 19 6 10 1019.5 1019.4 0.0
10/09:30pm 19.6 16.2 1.6 30 8.2 SSE 9 13 5 7 1018.9 1018.8 0.0
10/09:00pm 20.0 16.0 2.8 32 8.0 S 13 17 7 9 1018.3 1018.2 0.0
10/08:30pm 20.0 15.5 4.1 35 7.6 SSW 17 22 9 12 1017.9 1017.8 0.0
10/08:00pm 20.6 15.3 2.9 31 8.3 SSW 20 28 11 15 1017.7 1017.6 0.0
10/07:30pm 21.6 15.8 -0.4 23 9.8 SSW 20 28 11 15 1017.6 1017.5 0.0
10/07:00pm 23.3 16.8 0.4 22 10.5 SW 24 30 13 16 1017.5 1017.4 0.0
10/06:30pm 24.2 18.2 1.2 22 10.7 SSW 22 30 12 16 1017.3 1017.2 0.0
10/06:00pm 25.2 18.9 -0.8 18 11.8 SW 22 30 12 16 1017.2 1017.1 0.0
10/05:30pm 25.5 19.4 -3.9 14 12.6 SW 19 24 10 13 1017.2 1017.1 0.0
10/05:00pm 25.5 20.8 -2.1 16 12.3 SSW 13 22 7 12 1017.3 1017.2 0.0
10/04:30pm 25.9 20.1 -1.8 16 12.4 SW 19 26 10 14 1017.4 1017.3 0.0
10/04:00pm 25.3 19.2 -2.3 16 12.2 SW 20 32 11 17 1017.5 1017.4 0.0
10/03:30pm 25.5 18.9 -0.5 18 11.9 SW 24 33 13 18 1017.7 1017.6 0.0
10/03:00pm 25.0 17.9 -0.9 18 11.7 SW 26 35 14 19 1017.9 1017.8 0.0
10/02:30pm 24.7 18.5 -0.4 19 11.4 SW 22 32 12 17 1018.0 1017.9 0.0
10/02:00pm 25.2 19.5 0.7 20 11.4 SW 20 33 11 18 1018.1 1018.0 0.0
10/01:30pm 24.6 20.5 -0.5 19 11.4 S 11 24 6 13 1018.3 1018.2 0.0
10/01:00pm 23.9 19.4 -0.4 20 11.0 WSW 13 20 7 11 1018.5 1018.4 0.0
10/12:30pm 23.5 19.4 -0.1 21 10.7 S 11 19 6 10 1018.8 1018.7 0.0
10/12:00pm 22.9 18.4 -0.6 21 10.5 SW 13 26 7 14 1019.4 1019.3 0.0
10/11:30am 23.5 20.0 1.2 23 10.3 WSW 9 19 5 10 1019.9 1019.8 0.0
10/11:00am 22.0 18.8 3.2 29 9.0 S 9 13 5 7 1020.2 1020.1 0.0
10/10:30am 21.3 18.6 3.5 31 8.5 ENE 7 11 4 6 1020.3 1020.2 0.0
10/10:00am 20.2 16.5 4.3 35 7.7 N 13 17 7 9 1020.4 1020.3 0.0
10/09:30am 19.4 16.1 6.5 43 6.4 NNE 13 17 7 9 1020.5 1020.4 0.0
10/09:00am 18.3 15.0 6.2 45 6.0 NE 13 20 7 11 1020.4 1020.3 0.0
10/08:30am 17.0 15.0 7.1 52 4.9 E 7 13 4 7 1020.3 1020.2 0.0
10/08:00am 15.1 14.5 7.6 61 3.7 CALM 0 2 0 1 1020.1 1020.0 0.0
10/07:30am 12.3 11.9 8.4 77 1.9 CALM 0 0 0 0 1019.9 1019.8 0.0
10/07:00am 10.9 9.3 8.1 83 1.4 NE 6 7 3 4 1019.6 1019.5 0.0
10/06:30am 10.5 8.3 7.9 84 1.3 ENE 9 13 5 7 1019.2 1019.1 0.0
10/06:00am 8.7 6.5 6.3 85 1.1 NE 7 9 4 5 1019.0 1018.9 0.0
10/05:30am 10.0 8.2 7.9 87 1.0 NE 7 9 4 5 1018.8 1018.7 0.0
10/05:00am 9.0 8.2 6.4 84 1.2 CALM 0 0 0 0 1018.7 1018.6 0.0

Other Formats:

Comma delimited format used in spreadsheet applications
http://www.bom.gov.au/fwo/IDS60801/IDS60801.95676.axf

JavaScript Object Notation format (JSON) in row-major order
http://www.bom.gov.au/fwo/IDS60801/IDS60801.95676.json